• Join FlightAware (Why Join?)
  • Login
  • US Flag 
03:54AM EST


 

Airport Tracker/Info


-or-


 

Live Flight TrackerFlight Track Log ✈ VP-BLX ✈ 10-Apr-2014 ✈ UUEE / SVO - KLAX

Flight Track Log - Related Links

Times and Time Zones

All times are in EDT time to prevent confusion due to time zone crossing. See the VP-BLX flight status page for this flight to view local times or setup timezone preferences in your user account.

Time Position Orientation Groundspeed Altitude Reporting Facility
EDT Latitude Longitude Course Direction KTS MPH feet Rate Location/Type
05:26AM 56.4317 37.2451 344° North  Level FlightAware Approximate
05:27AM 56.5496 37.1819 344° North  Level FlightAware Approximate
05:28AM 56.6676 37.1183 343° North  Level FlightAware Approximate
05:29AM 56.7855 37.0543 343° North  Level FlightAware Approximate
05:30AM 56.9034 36.9899 343° North  Level FlightAware Approximate
05:31AM 57.0212 36.9250 343° North  Level FlightAware Approximate
05:32AM 57.1390 36.8598 343° North  Level FlightAware Approximate
05:33AM 57.2568 36.7941 343° North  Level FlightAware Approximate
05:34AM 57.3746 36.7281 343° North  Level FlightAware Approximate
05:35AM 57.4923 36.6616 343° North  Level FlightAware Approximate
05:36AM 57.6099 36.5946 343° North  Level FlightAware Approximate
05:37AM 57.7276 36.5273 343° North  Level FlightAware Approximate
05:38AM 57.8452 36.4595 343° North  Level FlightAware Approximate
05:39AM 57.9627 36.3912 343° North  Level FlightAware Approximate
05:40AM 58.0432 36.3437 341° North  Level FlightAware Approximate
05:41AM 58.1597 36.2687 341° North  Level FlightAware Approximate
05:42AM 58.2761 36.1933 341° North  Level FlightAware Approximate
05:43AM 58.3925 36.1173 341° North  Level FlightAware Approximate
05:44AM 58.5089 36.0409 341° North  Level FlightAware Approximate
05:45AM 58.6252 35.9639 341° North  Level FlightAware Approximate
05:46AM 58.7414 35.8864 341° North  Level FlightAware Approximate
05:47AM 58.8576 35.8084 341° North  Level FlightAware Approximate
05:48AM 58.9738 35.7299 341° North  Level FlightAware Approximate
05:49AM 59.0899 35.6509 341° North  Level FlightAware Approximate
05:50AM 59.2060 35.5713 341° North  Level FlightAware Approximate
05:51AM 59.3220 35.4912 341° North  Level FlightAware Approximate
05:52AM 59.4379 35.4105 341° North  Level FlightAware Approximate
05:53AM 59.5538 35.3293 340° North  Level FlightAware Approximate
05:54AM 59.6697 35.2475 340° North  Level FlightAware Approximate
05:55AM 59.7855 35.1651 340° North  Level FlightAware Approximate
05:56AM 59.9011 35.0814 340° North  Level FlightAware Approximate
05:57AM 60.0167 34.9972 340° North  Level FlightAware Approximate
05:58AM 60.1322 34.9123 340° North  Level FlightAware Approximate
05:59AM 60.2477 34.8269 340° North  Level FlightAware Approximate
06:00AM 60.3631 34.7408 340° North  Level FlightAware Approximate
06:01AM 60.4785 34.6542 340° North  Level FlightAware Approximate
06:02AM 60.5938 34.5669 340° North  Level FlightAware Approximate
06:03AM 60.7090 34.4790 340° North  Level FlightAware Approximate
06:04AM 60.8242 34.3904 339° North  Level FlightAware Approximate
06:05AM 60.9393 34.3013 339° North  Level FlightAware Approximate
06:06AM 61.0544 34.2114 339° North  Level FlightAware Approximate
06:07AM 61.1694 34.1210 339° North  Level FlightAware Approximate
06:08AM 61.2843 34.0298 339° North  Level FlightAware Approximate
06:09AM 61.3992 33.9380 339° North  Level FlightAware Approximate
06:10AM 61.5140 33.8455 339° North  Level FlightAware Approximate
06:11AM 61.6288 33.7523 339° North  Level FlightAware Approximate
06:12AM 61.7435 33.6585 339° North  Level FlightAware Approximate
06:13AM 61.8581 33.5639 339° North  Level FlightAware Approximate
06:14AM 61.9727 33.4686 339° North  Level FlightAware Approximate
06:15AM 62.0872 33.3727 339° North  Level FlightAware Approximate
06:16AM 62.2016 33.2759 338° Northwest  Level FlightAware Approximate
06:17AM 62.3159 33.1785 338° Northwest  Level FlightAware Approximate
06:18AM 62.4302 33.0803 338° Northwest  Level FlightAware Approximate
06:19AM 62.5445 32.9813 338° Northwest  Level FlightAware Approximate
06:20AM 62.6586 32.8816 338° Northwest  Level FlightAware Approximate
06:21AM 62.7727 32.7811 338° Northwest  Level FlightAware Approximate
06:22AM 62.8867 32.6798 338° Northwest  Level FlightAware Approximate
06:23AM 63.0006 32.5778 338° Northwest  Level FlightAware Approximate
06:24AM 63.1145 32.4749 338° Northwest  Level FlightAware Approximate
06:25AM 63.2283 32.3713 338° Northwest  Level FlightAware Approximate
06:26AM 63.3420 32.2668 338° Northwest  Level FlightAware Approximate
06:27AM 63.4556 32.1614 338° Northwest  Level FlightAware Approximate
06:28AM 63.5692 32.0553 337° Northwest  Level FlightAware Approximate
06:29AM 63.6827 31.9483 337° Northwest  Level FlightAware Approximate
06:30AM 63.7961 31.8404 337° Northwest  Level FlightAware Approximate
06:31AM 63.9094 31.7317 337° Northwest  Level FlightAware Approximate
06:32AM 64.0226 31.6221 337° Northwest  Level FlightAware Approximate
06:33AM 64.1357 31.5116 337° Northwest  Level FlightAware Approximate
06:34AM 64.2488 31.4002 337° Northwest  Level FlightAware Approximate
06:35AM 64.3618 31.2878 337° Northwest  Level FlightAware Approximate
06:36AM 64.4747 31.1746 337° Northwest  Level FlightAware Approximate
06:37AM 64.5875 31.0604 337° Northwest  Level FlightAware Approximate
06:38AM 64.7002 30.9452 336° Northwest  Level FlightAware Approximate
06:39AM 64.8128 30.8291 336° Northwest  Level FlightAware Approximate
06:40AM 64.9254 30.7120 336° Northwest  Level FlightAware Approximate
06:41AM 65.0378 30.5940 336° Northwest  Level FlightAware Approximate
06:42AM 65.1502 30.4749 336° Northwest  Level FlightAware Approximate
06:43AM 65.2624 30.3548 336° Northwest  Level FlightAware Approximate
06:44AM 65.3746 30.2337 336° Northwest  Level FlightAware Approximate
06:45AM 65.4866 30.1116 336° Northwest  Level FlightAware Approximate
06:46AM 65.5986 29.9884 336° Northwest  Level FlightAware Approximate
06:47AM 65.7105 29.8641 335° Northwest  Level FlightAware Approximate
06:48AM 65.8222 29.7388 335° Northwest  Level FlightAware Approximate
06:49AM 65.9339 29.6124 335° Northwest  Level FlightAware Approximate
06:50AM 66.0454 29.4848 335° Northwest  Level FlightAware Approximate
06:51AM 66.1569 29.3562 335° Northwest  Level FlightAware Approximate
06:52AM 66.2682 29.2264 335° Northwest  Level FlightAware Approximate
06:53AM 66.3794 29.0954 335° Northwest  Level FlightAware Approximate
06:54AM 66.4905 28.9633 335° Northwest  Level FlightAware Approximate
06:55AM 66.6015 28.8300 335° Northwest  Level FlightAware Approximate
06:56AM 66.7124 28.6955 334° Northwest  Level FlightAware Approximate
06:57AM 66.8232 28.5598 334° Northwest  Level FlightAware Approximate
06:58AM 66.9339 28.4229 334° Northwest  Level FlightAware Approximate
06:59AM 67.0444 28.2847 334° Northwest  Level FlightAware Approximate
07:00AM 67.1548 28.1452 334° Northwest  Level FlightAware Approximate
07:01AM 67.2651 28.0045 334° Northwest  Level FlightAware Approximate
07:02AM 67.3753 27.8625 334° Northwest  Level FlightAware Approximate
07:03AM 67.4853 27.7191 334° Northwest  Level FlightAware Approximate
07:04AM 67.5952 27.5744 333° Northwest  Level FlightAware Approximate
07:05AM 67.7050 27.4284 333° Northwest  Level FlightAware Approximate
07:06AM 67.8147 27.2810 333° Northwest  Level FlightAware Approximate
07:07AM 67.9242 27.1322 333° Northwest  Level FlightAware Approximate
07:08AM 68.0336 26.9820 333° Northwest  Level FlightAware Approximate
07:09AM 68.1428 26.8304 333° Northwest  Level FlightAware Approximate
07:10AM 68.2519 26.6773 333° Northwest  Level FlightAware Approximate
07:11AM 68.3609 26.5227 332° Northwest  Level FlightAware Approximate
07:12AM 68.4697 26.3667 332° Northwest  Level FlightAware Approximate
07:13AM 68.5784 26.2092 332° Northwest  Level FlightAware Approximate
07:14AM 68.6869 26.0501 332° Northwest  Level FlightAware Approximate
07:15AM 68.7953 25.8895 332° Northwest  Level FlightAware Approximate
07:16AM 68.9035 25.7273 332° Northwest  Level FlightAware Approximate
07:17AM 69.0116 25.5635 332° Northwest  Level FlightAware Approximate
07:18AM 69.1195 25.3981 331° Northwest  Level FlightAware Approximate
07:19AM 69.2272 25.2310 331° Northwest  Level FlightAware Approximate
07:20AM 69.3348 25.0623 331° Northwest  Level FlightAware Approximate
07:21AM 69.4422 24.8919 331° Northwest  Level FlightAware Approximate
07:22AM 69.5495 24.7198 331° Northwest  Level FlightAware Approximate
07:23AM 69.6565 24.5460 331° Northwest  Level FlightAware Approximate
07:24AM 69.7634 24.3704 330° Northwest  Level FlightAware Approximate
07:25AM 69.8702 24.1930 330° Northwest  Level FlightAware Approximate
07:26AM 69.9767 24.0138 330° Northwest  Level FlightAware Approximate
07:27AM 70.0831 23.8328 330° Northwest  Level FlightAware Approximate
07:28AM 70.1892 23.6499 330° Northwest  Level FlightAware Approximate
07:29AM 70.2952 23.4651 330° Northwest  Level FlightAware Approximate
07:30AM 70.4010 23.2784 329° Northwest  Level FlightAware Approximate
07:31AM 70.5067 23.0897 329° Northwest  Level FlightAware Approximate
07:32AM 70.6121 22.8991 329° Northwest  Level FlightAware Approximate
07:33AM 70.7173 22.7065 329° Northwest  Level FlightAware Approximate
07:34AM 70.8223 22.5118 329° Northwest  Level FlightAware Approximate
07:35AM 70.9271 22.3151 329° Northwest  Level FlightAware Approximate
07:36AM 71.0317 22.1163 328° Northwest  Level FlightAware Approximate
07:37AM 71.1360 21.9154 328° Northwest  Level FlightAware Approximate
07:38AM 71.2402 21.7123 328° Northwest  Level FlightAware Approximate
07:39AM 71.3441 21.5070 328° Northwest  Level FlightAware Approximate
07:40AM 71.4478 21.2995 328° Northwest  Level FlightAware Approximate
07:41AM 71.5513 21.0898 327° Northwest  Level FlightAware Approximate
07:42AM 71.6545 20.8778 327° Northwest  Level FlightAware Approximate
07:43AM 71.7576 20.6635 327° Northwest  Level FlightAware Approximate
07:44AM 71.8603 20.4468 327° Northwest  Level FlightAware Approximate
07:45AM 71.9629 20.2278 327° Northwest  Level FlightAware Approximate
07:46AM 72.0651 20.0063 326° Northwest  Level FlightAware Approximate
07:47AM 72.1671 19.7824 326° Northwest  Level FlightAware Approximate
07:48AM 72.2689 19.5560 326° Northwest  Level FlightAware Approximate
07:49AM 72.3704 19.3271 326° Northwest  Level FlightAware Approximate
07:50AM 72.4716 19.0956 325° Northwest  Level FlightAware Approximate
07:51AM 72.5726 18.8615 325° Northwest  Level FlightAware Approximate
07:52AM 72.6733 18.6247 325° Northwest  Level FlightAware Approximate
07:53AM 72.7737 18.3853 325° Northwest  Level FlightAware Approximate
07:54AM 72.8738 18.1432 325° Northwest  Level FlightAware Approximate
07:55AM 72.9736 17.8983 324° Northwest  Level FlightAware Approximate
07:56AM 73.0732 17.6506 324° Northwest  Level FlightAware Approximate
07:57AM 73.1724 17.4000 324° Northwest  Level FlightAware Approximate
07:58AM 73.2713 17.1466 324° Northwest  Level FlightAware Approximate
07:59AM 73.3699 16.8903 323° Northwest  Level FlightAware Approximate
08:00AM 73.4682 16.6310 323° Northwest  Level FlightAware Approximate
08:01AM 73.5662 16.3687 323° Northwest  Level FlightAware Approximate
08:02AM 73.6638 16.1033 323° Northwest  Level FlightAware Approximate
08:03AM 73.7611 15.8349 322° Northwest  Level FlightAware Approximate
08:04AM 73.8581 15.5632 322° Northwest  Level FlightAware Approximate
08:05AM 73.9547 15.2885 322° Northwest  Level FlightAware Approximate
08:06AM 74.0509 15.0104 322° Northwest  Level FlightAware Approximate
08:07AM 74.1468 14.7291 321° Northwest  Level FlightAware Approximate
08:08AM 74.2424 14.4445 321° Northwest  Level FlightAware Approximate
08:09AM 74.3375 14.1565 321° Northwest  Level FlightAware Approximate
08:10AM 74.4323 13.8650 321° Northwest  Level FlightAware Approximate
08:11AM 74.5267 13.5701 320° Northwest  Level FlightAware Approximate
08:12AM 74.6207 13.2716 320° Northwest  Level FlightAware Approximate
08:13AM 74.7143 12.9696 320° Northwest  Level FlightAware Approximate
08:14AM 74.8074 12.6640 319° Northwest  Level FlightAware Approximate
08:15AM 74.9002 12.3547 319° Northwest  Level FlightAware Approximate
08:16AM 74.9925 12.0416 319° Northwest  Level FlightAware Approximate
08:17AM 75.0844 11.7248 318° Northwest  Level FlightAware Approximate
08:18AM 75.1759 11.4042 318° Northwest  Level FlightAware Approximate
08:19AM 75.2669 11.0796 318° Northwest  Level FlightAware Approximate
08:20AM 75.3575 10.7512 318° Northwest  Level FlightAware Approximate
08:21AM 75.4476 10.4187 317° Northwest  Level FlightAware Approximate
08:22AM 75.5372 10.0822 317° Northwest  Level FlightAware Approximate
08:23AM 75.6263 9.7416 317° Northwest  Level FlightAware Approximate
08:24AM 75.7150 9.3969 316° Northwest  Level FlightAware Approximate
08:25AM 75.8031 9.0480 316° Northwest  Level FlightAware Approximate
08:26AM 75.8907 8.6948 316° Northwest  Level FlightAware Approximate
08:27AM 75.9778 8.3373 315° West  Level FlightAware Approximate
08:28AM 76.0644 7.9754 315° West  Level FlightAware Approximate
08:29AM 76.1504 7.6091 315° West  Level FlightAware Approximate
08:30AM 76.2359 7.2383 314° West  Level FlightAware Approximate
08:31AM 76.3208 6.8630 314° West  Level FlightAware Approximate
08:32AM 76.4052 6.4831 313° West  Level FlightAware Approximate
08:33AM 76.4889 6.0986 313° West  Level FlightAware Approximate
08:34AM 76.5721 5.7094 313° West  Level FlightAware Approximate
08:35AM 76.6547 5.3155 312° West  Level FlightAware Approximate
08:36AM 76.7366 4.9167 312° West  Level FlightAware Approximate
08:37AM 76.8180 4.5131 312° West  Level FlightAware Approximate
08:38AM 76.8986 4.1046 311° West  Level FlightAware Approximate
08:39AM 76.9787 3.6911 311° West  Level FlightAware Approximate
08:40AM 77.0581 3.2727 310° West  Level FlightAware Approximate
08:41AM 77.1367 2.8492 310° West  Level FlightAware Approximate
08:42AM 77.2148 2.4206 310° West  Level FlightAware Approximate
08:43AM 77.2921 1.9868 309° West  Level FlightAware Approximate
08:44AM 77.3687 1.5478 309° West  Level FlightAware Approximate
08:45AM 77.4445 1.1036 308° West  Level FlightAware Approximate
08:46AM 77.5197 0.6541 308° West  Level FlightAware Approximate
08:47AM 77.5940 0.1993 307° West  Level FlightAware Approximate
08:48AM 77.6677 -0.2609 307° West  Level FlightAware Approximate
08:49AM 77.7405 -0.7265 307° West  Level FlightAware Approximate
08:50AM 77.8125 -1.1976 306° West  Level FlightAware Approximate
08:51AM 77.8838 -1.6741 306° West  Level FlightAware Approximate
08:52AM 77.9542 -2.1562 305° West  Level FlightAware Approximate
08:53AM 78.0237 -2.6438 305° West  Level FlightAware Approximate
08:54AM 78.0924 -3.1370 304° West  Level FlightAware Approximate
08:55AM 78.1603 -3.6358 304° West  Level FlightAware Approximate
08:56AM 78.2273 -4.1403 303° West  Level FlightAware Approximate
08:57AM 78.2933 -4.6503 303° West  Level FlightAware Approximate
08:58AM 78.3585 -5.1661 302° West  Level FlightAware Approximate
08:59AM 78.4227 -5.6875 302° West  Level FlightAware Approximate
09:00AM 78.4860 -6.2147 301° West  Level FlightAware Approximate
09:01AM 78.5483 -6.7475 301° West  Level FlightAware Approximate
09:02AM 78.6097 -7.2860 300° West  Level FlightAware Approximate
09:03AM 78.6701 -7.8303 300° West  Level FlightAware Approximate
09:04AM 78.7294 -8.3803 299° West  Level FlightAware Approximate
09:05AM 78.7877 -8.9359 299° West  Level FlightAware Approximate
09:06AM 78.8450 -9.4973 298° West  Level FlightAware Approximate
09:07AM 78.9013 -10.0643 297° West  Level FlightAware Approximate
09:08AM 78.9565 -10.6369 297° West  Level FlightAware Approximate
09:09AM 79.0105 -11.2152 296° West  Level FlightAware Approximate
09:10AM 79.0635 -11.7991 296° West  Level FlightAware Approximate
09:11AM 79.1154 -12.3885 295° West  Level FlightAware Approximate
09:12AM 79.1661 -12.9835 295° West  Level FlightAware Approximate
09:13AM 79.2157 -13.5839 294° West  Level FlightAware Approximate
09:14AM 79.2641 -14.1897 293° West  Level FlightAware Approximate
09:15AM 79.3113 -14.8009 293° West  Level FlightAware Approximate
09:16AM 79.3574 -15.4174 292° West  Level FlightAware Approximate
09:17AM 79.4022 -16.0391 292° West  Level FlightAware Approximate
09:18AM 79.4457 -16.6659 291° West  Level FlightAware Approximate
09:19AM 79.4881 -17.2978 290° West  Level FlightAware Approximate
09:20AM 79.5292 -17.9347 290° West  Level FlightAware Approximate
09:21AM 79.5690 -18.5765 289° West  Level FlightAware Approximate
09:22AM 79.6075 -19.2231 289° West  Level FlightAware Approximate
09:23AM 79.6447 -19.8743 288° West  Level FlightAware Approximate
09:24AM 79.6806 -20.5301 287° West  Level FlightAware Approximate
09:25AM 79.7151 -21.1903 287° West  Level FlightAware Approximate
09:26AM 79.7484 -21.8549 286° West  Level FlightAware Approximate
09:27AM 79.7802 -22.5236 285° West  Level FlightAware Approximate
09:28AM 79.8107 -23.1964 285° West  Level FlightAware Approximate
09:29AM 79.8398 -23.8731 284° West  Level FlightAware Approximate
09:30AM 79.8675 -24.5536 283° West  Level FlightAware Approximate
09:31AM 79.8938 -25.2376 283° West  Level FlightAware Approximate
09:32AM 79.9187 -25.9251 282° West  Level FlightAware Approximate
09:33AM 79.9421 -26.6159 281° West  Level FlightAware Approximate
09:34AM 79.9642 -27.3097 281° West  Level FlightAware Approximate
09:35AM 79.9847 -28.0065 280° West  Level FlightAware Approximate
09:36AM 80.0038 -28.7060 279° West  Level FlightAware Approximate
09:37AM 80.0215 -29.4081 279° West  Level FlightAware Approximate
09:38AM 80.0377 -30.1125 278° West  Level FlightAware Approximate
09:39AM 80.0523 -30.8191 277° West  Level FlightAware Approximate
09:40AM 80.0656 -31.5277 277° West  Level FlightAware Approximate
09:41AM 80.0773 -32.2380 276° West  Level FlightAware Approximate
09:42AM 80.0875 -32.9498 275° West  Level FlightAware Approximate
09:43AM 80.0962 -33.6630 274° West  Level FlightAware Approximate
09:44AM 80.1034 -34.3774 274° West  Level FlightAware Approximate
09:45AM 80.1091 -35.0927 273° West  Level FlightAware Approximate
09:46AM 80.1133 -35.8086 272° West  Level FlightAware Approximate
09:47AM 80.1159 -36.5251 272° West  Level FlightAware Approximate
09:48AM 80.1171 -37.2418 271° West  Level FlightAware Approximate
09:49AM 80.1167 -37.9586 270° West  Level FlightAware Approximate
09:50AM 80.1148 -38.6753 269° West  Level FlightAware Approximate
09:51AM 80.1114 -39.3915 269° West  Level FlightAware Approximate
09:52AM 80.1065 -40.1072 268° West  Level FlightAware Approximate
09:53AM 80.1001 -40.8220 267° West  Level FlightAware Approximate
09:54AM 80.0922 -41.5359 267° West  Level FlightAware Approximate
09:55AM 80.0827 -42.2485 266° West  Level FlightAware Approximate
09:56AM 80.0718 -42.9596 265° West  Level FlightAware Approximate
09:57AM 80.0594 -43.6691 265° West  Level FlightAware Approximate
09:58AM 80.0454 -44.3767 264° West  Level FlightAware Approximate
09:59AM 80.0300 -45.0823 263° West  Level FlightAware Approximate
10:00AM 80.0132 -45.7856 262° West  Level FlightAware Approximate
10:01AM 79.9948 -46.4864 262° West  Level FlightAware Approximate
10:02AM 79.9750 -47.1847 261° West  Level FlightAware Approximate
10:03AM 79.9537 -47.8801 260° West  Level FlightAware Approximate
10:04AM 79.9310 -48.5724 260° West  Level FlightAware Approximate
10:05AM 79.9069 -49.2616 259° West  Level FlightAware Approximate
10:06AM 79.8813 -49.9475 258° West  Level FlightAware Approximate
10:07AM 79.8543 -50.6298 258° West  Level FlightAware Approximate
10:08AM 79.8259 -51.3085 257° West  Level FlightAware Approximate
10:09AM 79.7962 -51.9833 256° West  Level FlightAware Approximate
10:10AM 79.7650 -52.6542 256° West  Level FlightAware Approximate
10:11AM 79.7325 -53.3209 255° West  Level FlightAware Approximate
10:12AM 79.6986 -53.9834 254° West  Level FlightAware Approximate
10:13AM 79.6634 -54.6415 254° West  Level FlightAware Approximate
10:14AM 79.6269 -55.2951 253° West  Level FlightAware Approximate
10:15AM 79.5891 -55.9441 252° West  Level FlightAware Approximate
10:16AM 79.5499 -56.5884 252° West  Level FlightAware Approximate
10:17AM 79.5095 -57.2278 251° West  Level FlightAware Approximate
10:18AM 79.4678 -57.8623 251° West  Level FlightAware Approximate
10:19AM 79.4249 -58.4918 250° West  Level FlightAware Approximate
10:20AM 79.3807 -59.1162 249° West  Level FlightAware Approximate
10:21AM 79.3353 -59.7354 249° West  Level FlightAware Approximate
10:22AM 79.2887 -60.3493 248° West  Level FlightAware Approximate
10:23AM 79.2409 -60.9580 247° West  Level FlightAware Approximate
10:24AM 79.1919 -61.5612 247° West  Level FlightAware Approximate
10:25AM 79.1418 -62.1590 246° West  Level FlightAware Approximate
10:26AM 79.0906 -62.7513 246° West  Level FlightAware Approximate
10:27AM 79.0381 -63.3381 245° Southwest  Level FlightAware Approximate
10:28AM 78.9846 -63.9193 245° Southwest  Level FlightAware Approximate
10:29AM 78.9300 -64.4949 244° Southwest  Level FlightAware Approximate
10:30AM 78.8744 -65.0649 243° Southwest  Level FlightAware Approximate
10:31AM 78.8176 -65.6292 243° Southwest  Level FlightAware Approximate
10:32AM 78.7598 -66.1878 242° Southwest  Level FlightAware Approximate
10:33AM 78.7010 -66.7407 242° Southwest  Level FlightAware Approximate
10:34AM 78.6412 -67.2880 241° Southwest  Level FlightAware Approximate
10:35AM 78.5803 -67.8295 241° Southwest  Level FlightAware Approximate
10:36AM 78.5185 -68.3653 240° Southwest  Level FlightAware Approximate
10:37AM 78.4557 -68.8954 240° Southwest  Level FlightAware Approximate
10:38AM 78.3920 -69.4198 239° Southwest  Level FlightAware Approximate
10:39AM 78.3273 -69.9386 239° Southwest  Level FlightAware Approximate
10:40AM 78.2617 -70.4516 238° Southwest  Level FlightAware Approximate
10:41AM 78.1952 -70.9590 238° Southwest  Level FlightAware Approximate
10:42AM 78.1278 -71.4607 237° Southwest  Level FlightAware Approximate
10:43AM 78.0596 -71.9569 237° Southwest  Level FlightAware Approximate
10:44AM 77.9904 -72.4474 236° Southwest  Level FlightAware Approximate
10:45AM 77.9205 -72.9324 236° Southwest  Level FlightAware Approximate
10:46AM 77.8497 -73.4118 235° Southwest  Level FlightAware Approximate
10:47AM 77.7781 -73.8857 235° Southwest  Level FlightAware Approximate
10:48AM 77.7057 -74.3542 234° Southwest  Level FlightAware Approximate
10:49AM 77.6324 -74.8172 234° Southwest  Level FlightAware Approximate
10:50AM 77.5585 -75.2748 233° Southwest  Level FlightAware Approximate
10:51AM 77.4837 -75.7271 233° Southwest  Level FlightAware Approximate
10:52AM 77.4083 -76.1741 232° Southwest  Level FlightAware Approximate
10:53AM 77.3320 -76.6158 232° Southwest  Level FlightAware Approximate
10:54AM 77.2551 -77.0523 232° Southwest  Level FlightAware Approximate
10:55AM 77.1775 -77.4836 231° Southwest  Level FlightAware Approximate
10:56AM 77.0991 -77.9097 231° Southwest  Level FlightAware Approximate
10:57AM 77.0201 -78.3308 230° Southwest  Level FlightAware Approximate
10:58AM 76.9404 -78.7469 230° Southwest  Level FlightAware Approximate
10:59AM 76.8601 -79.1580 229° Southwest  Level FlightAware Approximate
11:00AM 76.7791 -79.5642 229° Southwest  Level FlightAware Approximate
11:01AM 76.6974 -79.9654 229° Southwest  Level FlightAware Approximate
11:02AM 76.6152 -80.3619 228° Southwest  Level FlightAware Approximate
11:03AM 76.5323 -80.7536 228° Southwest  Level FlightAware Approximate
11:04AM 76.4489 -81.1405 227° Southwest  Level FlightAware Approximate
11:05AM 76.3649 -81.5229 227° Southwest  Level FlightAware Approximate
11:06AM 76.2802 -81.9005 227° Southwest  Level FlightAware Approximate
11:07AM 76.1950 -82.2737 226° Southwest  Level FlightAware Approximate
11:08AM 76.1093 -82.6423 226° Southwest  Level FlightAware Approximate
11:09AM 76.0230 -83.0065 226° Southwest  Level FlightAware Approximate
11:10AM 75.9362 -83.3663 225° Southwest  Level FlightAware Approximate
11:11AM 75.8488 -83.7217 225° Southwest  Level FlightAware Approximate
11:12AM 75.7610 -84.0729 225° Southwest  Level FlightAware Approximate
11:13AM 75.6726 -84.4198 224° Southwest  Level FlightAware Approximate
11:14AM 75.5837 -84.7626 224° Southwest  Level FlightAware Approximate
11:15AM 75.4910 -85.0828 221° Southwest  Level Estimated
11:16AM 75.3979 -85.3988 221° Southwest  Level Estimated
11:17AM 75.3045 -85.7108 220° Southwest  Level Estimated
11:18AM 75.2106 -86.0190 220° Southwest  Level Estimated
11:19AM 75.1163 -86.3234 220° Southwest  Level Estimated
11:20AM 75.0216 -86.6240 219° Southwest  Level Estimated
11:21AM 74.9266 -86.9209 219° Southwest  Level Estimated
11:22AM 74.8311 -87.2142 219° Southwest  Level Estimated
11:23AM 74.7353 -87.5039 219° Southwest  Level Estimated
11:24AM 74.6391 -87.7900 218° Southwest  Level Estimated
11:25AM 74.5425 -88.0726 218° Southwest  Level Estimated
11:26AM 74.4456 -88.3519 218° Southwest  Level Estimated
11:27AM 74.3484 -88.6277 217° Southwest  Level Estimated
11:28AM 74.2508 -88.9003 217° Southwest  Level Estimated
11:29AM 74.1528 -89.1695 217° Southwest  Level Estimated
11:30AM 74.0546 -89.4355 217° Southwest  Level Estimated
11:31AM 73.9560 -89.6984 216° Southwest  Level Estimated
11:32AM 73.8571 -89.9581 216° Southwest  Level Estimated
11:33AM 73.7579 -90.2147 216° Southwest  Level Estimated
11:34AM 73.6584 -90.4683 216° Southwest  Level Estimated
11:35AM 73.5586 -90.7189 215° Southwest  Level Estimated
11:36AM 73.4585 -90.9665 215° Southwest  Level Estimated
11:37AM 73.3581 -91.2113 215° Southwest  Level Estimated
11:38AM 73.2574 -91.4532 215° Southwest  Level Estimated
11:39AM 73.1564 -91.6922 214° Southwest  Level Estimated
11:40AM 73.0552 -91.9285 214° Southwest  Level Estimated
11:41AM 72.9537 -92.1621 214° Southwest  Level Estimated
11:42AM 72.8520 -92.3930 214° Southwest  Level Estimated
11:43AM 72.7499 -92.6213 214° Southwest  Level Estimated
11:44AM 72.6477 -92.8469 213° Southwest  Level Estimated
11:45AM 72.5451 -93.0700 213° Southwest  Level Estimated
11:46AM 72.4424 -93.2905 213° Southwest  Level Estimated
11:47AM 72.3393 -93.5086 213° Southwest  Level Estimated
11:48AM 72.2361 -93.7242 213° Southwest  Level Estimated
11:49AM 72.1326 -93.9374 212° Southwest  Level Estimated
11:50AM 72.0289 -94.1482 212° Southwest  Level Estimated
11:51AM 71.9250 -94.3567 212° Southwest  Level Estimated
11:52AM 71.8208 -94.5628 212° Southwest  Level Estimated
11:53AM 71.7164 -94.7667 212° Southwest  Level Estimated
11:54AM 71.6118 -94.9684 211° Southwest  Level Estimated
11:55AM 71.5070 -95.1678 211° Southwest  Level Estimated
11:56AM 71.4020 -95.3651 211° Southwest  Level Estimated
11:57AM 71.2968 -95.5602 211° Southwest  Level Estimated
11:58AM 71.1914 -95.7532 211° Southwest  Level Estimated
11:59AM 71.0858 -95.9442 210° Southwest  Level Estimated
12:00PM 70.9800 -96.1331 210° Southwest  Level Estimated
12:01PM 70.8740 -96.3200 210° Southwest  Level Estimated
12:02PM 70.7678 -96.5049 210° Southwest  Level Estimated
12:03PM 70.6615 -96.6878 210° Southwest  Level Estimated
12:04PM 70.5549 -96.8689 210° Southwest  Level Estimated
12:05PM 70.4482 -97.0480 209° Southwest  Level Estimated
12:06PM 70.3413 -97.2253 209° Southwest  Level Estimated
12:07PM 70.2343 -97.4007 209° Southwest  Level Estimated
12:08PM 70.1270 -97.5743 209° Southwest  Level Estimated
12:09PM 70.0196 -97.7461 209° Southwest  Level Estimated
12:10PM 69.9120 -97.9161 209° Southwest  Level Estimated
12:11PM 69.8043 -98.0844 208° Southwest  Level Estimated
12:12PM 69.6964 -98.2510 208° Southwest  Level Estimated
12:13PM 69.5884 -98.4159 208° Southwest  Level Estimated
12:14PM 69.4802 -98.5791 208° Southwest  Level Estimated
12:15PM 69.3719 -98.7407 208° Southwest  Level Estimated
12:16PM 69.2634 -98.9007 208° Southwest  Level Estimated
12:17PM 69.1547 -99.0591 207° Southwest  Level Estimated
12:18PM 69.0460 -99.2159 207° Southwest  Level Estimated
12:19PM 68.9370 -99.3712 207° Southwest  Level Estimated
12:20PM 68.8280 -99.5249 207° Southwest  Level Estimated
12:21PM 68.7188 -99.6772 207° Southwest  Level Estimated
12:22PM 68.6094 -99.8279 207° Southwest  Level Estimated
12:23PM 68.4999 -99.9772 207° Southwest  Level Estimated
12:24PM 68.3903 -100.1251 206° Southwest  Level Estimated
12:25PM 68.2806 -100.2715 206° Southwest  Level Estimated
12:26PM 68.1708 -100.4165 206° Southwest  Level Estimated
12:27PM 68.0608 -100.5602 206° Southwest  Level Estimated
12:28PM 67.9507 -100.7025 206° Southwest  Level Estimated
12:29PM 67.8404 -100.8434 206° Southwest  Level Estimated
12:30PM 67.7301 -100.9830 206° Southwest  Level Estimated
12:31PM 67.6196 -101.1213 205° Southwest  Level Estimated
12:32PM 67.5090 -101.2583 205° Southwest  Level Estimated
12:33PM 67.3983 -101.3941 205° Southwest  Level Estimated
12:34PM 67.2875 -101.5285 205° Southwest  Level Estimated
12:35PM 67.1766 -101.6618 205° Southwest  Level Estimated
12:36PM 67.0656 -101.7938 205° Southwest  Level Estimated
12:37PM 66.9544 -101.9246 205° Southwest  Level Estimated
12:38PM 66.8431 -102.0543 205° Southwest  Level Estimated
12:39PM 66.7318 -102.1827 205° Southwest  Level Estimated
12:40PM 66.6203 -102.3100 204° Southwest  Level Estimated
12:41PM 66.5088 -102.4362 204° Southwest  Level Estimated
12:42PM 66.3971 -102.5612 204° Southwest  Level Estimated
12:43PM 66.2854 -102.6852 204° Southwest  Level Estimated
12:44PM 66.1735 -102.8080 204° Southwest  Level Estimated
12:45PM 66.0615 -102.9297 204° Southwest  Level Estimated
12:46PM 65.9495 -103.0504 204° Southwest  Level Estimated
12:47PM 65.8374 -103.1701 204° Southwest  Level Estimated
12:48PM 65.7251 -103.2887 203° Southwest  Level Estimated
12:49PM 65.6128 -103.4062 203° Southwest  Level Estimated
12:50PM 65.5004 -103.5228 203° Southwest  Level Estimated
12:51PM 65.3879 -103.6383 203° Southwest  Level Estimated
12:52PM 65.2753 -103.7529 203° Southwest  Level Estimated
12:53PM 65.1626 -103.8665 203° Southwest  Level Estimated
12:54PM 65.0498 -103.9791 203° Southwest  Level Estimated
12:55PM 64.9370 -104.0908 203° Southwest  Level Estimated
12:56PM 64.8241 -104.2015 203° Southwest  Level Estimated
12:57PM 64.7110 -104.3113 203° Southwest  Level Estimated
12:58PM 64.5980 -104.4202 202° Southwest  Level Estimated
12:59PM 64.4848 -104.5282 202° Southwest  Level Estimated
01:00PM 64.3715 -104.6353 202° Southwest  Level Estimated
01:01PM 64.2582 -104.7416 202° Southwest  Level Estimated
01:02PM 64.1448 -104.8469 202° Southwest  Level Estimated
01:03PM 64.0313 -104.9514 202° Southwest  Level Estimated
01:04PM 63.9178 -105.0551 202° Southwest  Level Estimated
01:05PM 63.8041 -105.1579 202° Southwest  Level Estimated
01:06PM 63.6904 -105.2599 202° Southwest  Level Estimated
01:07PM 63.5766 -105.3611 202° Southwest  Level Estimated
01:08PM 63.4628 -105.4615 202° Southwest  Level Estimated
01:09PM 63.3489 -105.5611 201° Southwest  Level Estimated
01:10PM 63.2349 -105.6598 201° Southwest  Level Estimated
01:11PM 63.1209 -105.7579 201° Southwest  Level Estimated
01:12PM 63.0067 -105.8551 201° Southwest  Level Estimated
01:13PM 62.8926 -105.9516 201° Southwest  Level Estimated
01:14PM 62.7783 -106.0473 201° Southwest  Level Estimated
01:15PM 62.6640 -106.1423 201° Southwest  Level Estimated
01:16PM 62.5496 -106.2366 201° Southwest  Level Estimated
01:17PM 62.4352 -106.3302 201° Southwest  Level Estimated
01:18PM 62.3207 -106.4230 201° Southwest  Level Estimated
01:19PM 62.2061 -106.5151 201° Southwest  Level Estimated
01:20PM 62.0915 -106.6066 200° South  Level Estimated
01:21PM 61.9768 -106.6973 200° South  Level Estimated
01:22PM 61.8621 -106.7874 200° South  Level Estimated
01:23PM 61.7473 -106.8768 200° South  Level Estimated
01:24PM 61.6324 -106.9655 200° South  Level Estimated
01:25PM 61.5175 -107.0536 200° South  Level Estimated
01:25PM 61.7333 -106.1000 200° South 460 529 36,000  Level Edmonton Center
01:26PM 61.4025 -107.1410 200° South  Level Estimated
01:26PM 61.6167 -106.2333 209° Southwest 460 529 36,000  Level Edmonton Center
01:27PM 61.2875 -107.2278 200° South  Level Estimated
01:28PM 61.1724 -107.3139 200° South  Level Estimated
01:28PM 61.3833 -106.5167 210° Southwest 470 541 36,000  Level Edmonton Center
01:29PM 61.0573 -107.3995 200° South  Level Estimated
01:30PM 60.9421 -107.4844 200° South  Level Estimated
01:30PM 61.1667 -106.7833 211° Southwest 460 529 36,000  Level Edmonton Center
01:34PM 60.7000 -107.2833 208° Southwest 460 529 36,000  Level Edmonton Center
01:37PM 60.3500 -107.6667 200° South 470 541 36,000  Level Edmonton Center
01:38PM 60.2333 -107.8000 210° Southwest 460 529 36,000  Level Edmonton Center
01:39PM 60.1333 -107.9167 210° Southwest 460 529 36,000  Level Edmonton Center
01:40PM 60.1912 -107.8525 208° Southwest  Level FlightAware Approximate
01:40PM 60.0000 -108.0500 207° Southwest 460 529 36,000  Level Edmonton Center
01:41PM 59.8833 -108.1667 207° Southwest 470 541 36,000  Level Edmonton Center
01:42PM 59.7833 -108.3000 214° Southwest 470 541 36,000  Level Edmonton Center
01:44PM 59.5333 -108.5000 207° Southwest 470 541 36,000  Level Edmonton Center
01:46PM 59.3167 -108.7500 199° South 460 529 36,000  Level Edmonton Center
01:47PM 59.3371 -108.7248 207° Southwest  Level FlightAware Approximate
01:47PM 59.1833 -108.8667 204° Southwest 460 529 36,000  Level Edmonton Center
01:53PM 58.4833 -109.5000 197° South 460 529 36,000  Level Edmonton Center
01:54PM 58.4798 -109.3104 198° South  Level Estimated
01:54PM 58.3667 -109.6167 208° Southwest 460 529 36,000  Level Edmonton Center
01:55PM 58.2500 -109.7333 208° Southwest 460 529 36,000  Level Edmonton Center
01:59PM 57.7833 -110.1500 197° South 470 541 36,000  Level Edmonton Center
02:01PM 57.5333 -110.3667 197° South 470 541 36,000  Level Edmonton Center
02:02PM 57.5473 -109.8706 197° South  Level Estimated
02:02PM 57.5425 -110.1417 197° South  Level Estimated
02:02PM 57.4333 -110.4833 212° Southwest 470 541 36,000  Level Edmonton Center
02:03PM 57.4305 -109.9386 197° South  Level Estimated
02:03PM 57.2833 -110.5833 200° South 470 541 36,000  Level Edmonton Center
02:04PM 57.1833 -110.7000 212° Southwest 470 541 36,000  Level Edmonton Center
02:05PM 57.1912 -110.4778 197° South  Level Estimated
02:05PM 57.0500 -110.7667 195° South 470 541 36,000  Level Edmonton Center
02:06PM 56.9333 -110.8667 205° Southwest 460 529 36,000  Level Edmonton Center
02:07PM 56.8333 -110.9833 213° Southwest 460 529 36,000  Level Edmonton Center
02:08PM 56.7000 -111.0833 202° Southwest 460 529 36,000  Level Edmonton Center
02:09PM 56.7223 -110.5948 197° South  Level Estimated
02:09PM 56.6000 -111.1667 205° Southwest 460 529 36,000  Level Edmonton Center
02:10PM 56.4667 -111.2833 206° Southwest 460 529 36,000  Level Edmonton Center
02:11PM 56.3667 -111.3667 205° Southwest 440 506 36,000  Level Edmonton Center
02:12PM 56.2333 -111.4667 203° Southwest 450 518 36,000  Level Edmonton Center
02:13PM 56.1333 -111.5667 209° Southwest 460 529 36,000  Level Edmonton Center
02:15PM 55.9000 -111.7667 206° Southwest 450 518 36,000  Level Edmonton Center
02:16PM 55.7833 -111.8667 206° Southwest 460 529 36,000  Level Edmonton Center
02:18PM 55.5500 -112.0667 206° Southwest 460 529 36,000  Level Edmonton Center
02:19PM 55.4167 -112.1667 203° Southwest 460 529 36,000  Level Edmonton Center
02:20PM 55.3167 -112.2333 201° Southwest 460 529 36,000  Level Edmonton Center
02:22PM 55.0833 -112.4333 205° Southwest 460 529 36,000  Level Edmonton Center
02:23PM 54.9500 -112.5333 203° Southwest 460 529 36,000  Level Edmonton Center
02:24PM 54.9775 -112.5053 205° Southwest  Level FlightAware Approximate
02:25PM 54.7167 -112.7167 204° Southwest 460 529 36,000  Level Edmonton Center
02:26PM 54.6000 -112.8167 206° Southwest 460 529 36,000  Level Edmonton Center
02:30PM 54.1333 -113.1833 203° Southwest 470 541 36,000  Level Edmonton Center
02:31PM 54.2592 -113.0601 203° Southwest  Level FlightAware Approximate
02:31PM 54.0000 -113.2667 200° South 460 529 36,000  Level Edmonton Center
02:34PM 53.6500 -113.5500 205° Southwest 450 518 36,000  Level Edmonton Center
02:35PM 53.5333 -113.6000 194° South 460 529 36,000  Level Edmonton Center
02:36PM 53.4000 -113.7000 204° Southwest 460 529 36,000  Level Edmonton Center
02:37PM 53.3000 -113.7833 206° Southwest 460 529 36,000  Level Edmonton Center
02:39PM 53.0667 -113.9667 205° Southwest 460 529 36,000  Level Edmonton Center
02:40PM 52.9333 -114.0500 201° Southwest 460 529 36,000  Level Edmonton Center
02:41PM 52.8167 -114.1000 195° South 460 529 36,000  Level Edmonton Center
02:42PM 52.6833 -114.1833 201° Southwest 460 529 36,000  Level Edmonton Center
02:45PM 52.4167 -114.2833 193° South 460 529 36,000  Level Vancouver Center
02:45PM 52.3167 -114.3833 211° Southwest 450 518 36,000  Level Edmonton Center
02:46PM 52.2000 -114.4500 199° South 450 518 36,000  Level Edmonton Center
02:47PM 52.0833 -114.5000 195° South 450 518 36,000  Level Edmonton Center
02:48PM 51.9500 -114.5833 201° Southwest 450 518 36,000  Level Edmonton Center
02:49PM 51.8500 -114.6333 197° South 450 518 36,000  Level Edmonton Center
02:50PM 51.7167 -114.7167 201° Southwest 450 518 36,000  Level Edmonton Center
02:51PM 51.6000 -114.7667 195° South 450 518 36,000  Level Edmonton Center
02:52PM 51.4667 -114.8500 201° Southwest 450 518 36,000  Level Edmonton Center
02:54PM 51.2500 -115.0167 206° Southwest 450 518 36,000  Level Edmonton Center
02:55PM 51.1500 -115.0833 203° Southwest 450 518 36,000  Level Edmonton Center
02:56PM 51.0167 -115.1500 197° South 450 518 36,000  Level Edmonton Center
02:58PM 50.8667 -115.2167 196° South 470 541 36,000  Level Vancouver Center
02:59PM 50.7500 -115.2833 200° South 470 541 36,000  Level Vancouver Center
02:59PM 50.6667 -115.4000 222° Southwest 460 529 36,000  Level Edmonton Center
03:00PM 50.5500 -115.4667 200° South 460 529 36,000  Level Edmonton Center
03:01PM 50.4167 -115.5500 202° Southwest 460 529 36,000  Level Edmonton Center
03:02PM 50.3167 -115.6333 208° Southwest 460 529 36,000  Level Edmonton Center
03:03PM 50.1833 -115.7000 198° South 460 529 36,000  Level Edmonton Center
03:06PM 49.9167 -115.8333 198° South 460 529 36,000  Level Vancouver Center
03:07PM 49.8000 -115.9000 200° South 460 529 36,000  Level Vancouver Center
03:08PM 49.5833 -116.0833 209° Southwest 460 529 36,000  Level Edmonton Center
03:09PM 49.4833 -116.1667 208° Southwest 460 529 36,000  Level Edmonton Center
03:10PM 49.3500 -116.2333 198° South 450 518 36,000  Level Edmonton Center
03:11PM 49.2500 -116.3500 217° Southwest 450 518 36,000  Level Edmonton Center
03:12PM 49.1500 -116.4167 204° Southwest 450 518 36,000  Level Edmonton Center
03:13PM 49.0167 -116.5167 206° Southwest 450 518 36,000  Level Edmonton Center
03:15PM 48.9131 -116.5528 193° South 469 540 36,000  Level Seattle Center
03:16PM 48.7800 -116.5842 189° South 480 552 36,000  Level Seattle Center
03:17PM 48.6458 -116.6139 188° South 485 558 36,000  Level Seattle Center
03:18PM 48.5122 -116.6461 189° South 485 558 36,000  Level Seattle Center
03:19PM 48.2714 -116.7006 189° South 486 559 36,000  Level Salt Lake Center
03:21PM 48.1378 -116.7317 189° South 486 559 36,000  Level Salt Lake Center
03:22PM 48.0056 -116.7614 189° South 486 559 36,000  Level Salt Lake Center
03:23PM 47.8728 -116.7928 189° South 486 559 36,000  Level Salt Lake Center
03:24PM 47.7119 -116.8278 188° South 487 560 36,000  Level Salt Lake Center
03:25PM 47.5792 -116.8556 188° South 487 560 36,000  Level Salt Lake Center
03:26PM 47.4469 -116.8872 189° South 486 559 36,000  Level Salt Lake Center
03:27PM 47.3139 -116.9164 188° South 486 559 36,000  Level Salt Lake Center
03:28PM 47.1783 -116.9461 188° South 488 562 36,000  Level Salt Lake Center
03:29PM 47.0436 -116.9764 189° South 491 565 36,000  Level Salt Lake Center
03:35PM 46.1591 -117.1629 189° South 495 570 36,000  Level FlightAware ADS-B
03:36PM 46.0900 -117.1775 189° South 495 570 36,000  Level FlightAware ADS-B
03:36PM 46.0254 -117.1910 189° South 495 570 36,000  Level FlightAware ADS-B
03:37PM 45.9531 -117.2062 189° South 494 568 36,000  Level FlightAware ADS-B
03:37PM 45.8933 -117.2186 189° South 493 567 36,000  Level FlightAware ADS-B
03:38PM 45.8182 -117.2342 189° South 493 567 36,000  Level FlightAware ADS-B
03:38PM 45.7518 -117.2480 189° South 494 568 36,000  Level FlightAware ADS-B
03:39PM 45.6852 -117.2617 189° South 495 570 36,000  Level FlightAware ADS-B
03:39PM 45.6205 -117.2751 189° South 495 570 36,000  Level FlightAware ADS-B
03:40PM 45.5550 -117.2886 189° South 494 568 36,000  Level FlightAware ADS-B
03:40PM 45.4923 -117.3016 189° South 494 568 36,000  Level FlightAware ADS-B
03:41PM 45.4115 -117.3181 189° South 492 566 36,000  Level FlightAware ADS-B
03:41PM 45.3446 -117.3318 189° South 492 566 36,000  Level FlightAware ADS-B
03:42PM 45.2789 -117.3452 189° South 492 566 36,000  Level FlightAware ADS-B
03:42PM 45.2080 -117.3596 189° South 491 565 36,000  Level FlightAware ADS-B
03:43PM 45.1430 -117.3728 189° South 489 563 36,000  Level FlightAware ADS-B
03:43PM 45.0748 -117.3866 189° South 487 560 36,000  Level FlightAware ADS-B
03:44PM 45.0116 -117.3994 189° South 485 558 36,000  Level FlightAware ADS-B
03:44PM 44.9439 -117.4130 189° South 484 557 36,000  Level FlightAware ADS-B
03:45PM 44.8764 -117.4266 189° South 483 556 36,000  Level FlightAware ADS-B
03:45PM 44.8090 -117.4402 189° South 481 554 36,000  Level FlightAware ADS-B
03:46PM 44.6781 -117.4663 189° South 479 551 36,000  Level FlightAware ADS-B
03:47PM 44.6118 -117.4795 189° South 477 549 36,000  Level FlightAware ADS-B
03:47PM 44.5456 -117.4927 189° South 477 549 36,000  Level FlightAware ADS-B
03:48PM 44.4804 -117.5056 189° South 477 549 36,000  Level FlightAware ADS-B
03:48PM 44.4160 -117.5184 189° South 478 550 36,000  Level FlightAware ADS-B
03:49PM 44.3500 -117.5314 189° South 479 551 36,000  Level FlightAware ADS-B
03:49PM 44.2843 -117.5444 189° South 481 554 36,000  Level FlightAware ADS-B
03:50PM 44.2151 -117.5580 189° South 481 554 36,000  Level FlightAware ADS-B
03:50PM 44.1516 -117.5704 189° South 481 554 36,000  Level FlightAware ADS-B
03:51PM 44.0858 -117.5833 189° South 481 554 36,000  Level FlightAware ADS-B
03:51PM 44.0226 -117.5956 189° South 479 551 36,000  Level FlightAware ADS-B
03:52PM 43.9520 -117.6094 189° South 478 550 36,000  Level FlightAware ADS-B
03:52PM 43.8884 -117.6217 189° South 479 551 36,000  Level FlightAware ADS-B
03:53PM 43.8206 -117.6348 189° South 479 551 36,000  Level FlightAware ADS-B
03:53PM 43.7555 -117.6474 188° South 478 550 36,000  Level FlightAware ADS-B
03:54PM 43.6889 -117.6602 188° South 475 547 36,000  Level FlightAware ADS-B
03:54PM 43.6236 -117.6728 189° South 473 544 36,000  Level FlightAware ADS-B
03:55PM 43.5602 -117.6850 188° South 474 545 36,000  Level FlightAware ADS-B
03:55PM 43.4944 -117.6976 188° South 474 545 36,000  Level FlightAware ADS-B
03:56PM 43.4374 -117.7086 188° South 475 547 36,000  Level FlightAware ADS-B
03:56PM 43.3780 -117.7199 188° South 475 547 36,000  Level FlightAware ADS-B
03:57PM 43.2312 -117.7478 188° South 477 549 36,000  Level FlightAware ADS-B
03:58PM 43.1695 -117.7595 188° South 476 548 36,000  Level FlightAware ADS-B
03:58PM 43.1014 -117.7725 188° South 475 547 36,000  Level FlightAware ADS-B
03:59PM 43.0958 -117.7736 188° South 475 547 36,000  Level FlightAware ADS-B
03:59PM 42.9724 -117.7968 188° South 474 545 36,000  Level FlightAware ADS-B
04:00PM 42.9210 -117.8065 188° South 473 544 36,000  Level FlightAware ADS-B
04:00PM 42.8525 -117.8193 188° South 473 544 36,000  Level FlightAware ADS-B
04:01PM 42.6904 -117.8497 188° South 472 543 36,000  Level FlightAware ADS-B
04:02PM 42.6147 -117.8680 194° South 467 537 36,000  Level FlightAware ADS-B
04:03PM 42.5340 -117.9029 202° Southwest 460 529 36,000  Level FlightAware ADS-B
04:03PM 42.4559 -117.9505 205° Southwest 459 528 36,000  Level FlightAware ADS-B
04:04PM 42.3970 -117.9869 205° Southwest 459 528 36,000  Level FlightAware ADS-B
04:04PM 42.3405 -118.0216 205° Southwest 460 529 36,000  Level FlightAware ADS-B
04:05PM 42.2982 -118.0473 205° Southwest 460 529 36,000  Level FlightAware ADS-B
04:05PM 42.2233 -118.0928 205° Southwest 461 531 36,000  Level FlightAware ADS-B
04:06PM 42.1656 -118.1279 205° Southwest 461 531 36,000  Level FlightAware ADS-B
04:06PM 42.1054 -118.1644 205° Southwest 461 531 36,000  Level FlightAware ADS-B
04:07PM 42.0477 -118.1992 205° Southwest 460 529 36,000  Level FlightAware ADS-B
04:07PM 41.9894 -118.2343 205° Southwest 458 527 36,000  Level FlightAware ADS-B
04:08PM 41.9462 -118.2603 205° Southwest 457 526 36,000  Level FlightAware ADS-B
04:08PM 41.9129 -118.2804 205° Southwest 457 526 36,000  Level FlightAware ADS-B
04:09PM 41.8191 -118.3367 205° Southwest 456 525 36,000  Level FlightAware ADS-B
04:09PM 41.7590 -118.3727 205° Southwest 456 525 36,000  Level FlightAware ADS-B
04:10PM 41.7012 -118.4073 205° Southwest 454 522 36,000  Level FlightAware ADS-B
04:10PM 41.6440 -118.4414 205° Southwest 452 520 36,000  Level FlightAware ADS-B
04:10PM 41.6347 -118.4469 205° Southwest 452 520 36,000  Level FlightAware ADS-B
04:12PM 41.4329 -118.5666 204° Southwest 453 521 36,000  Level FlightAware ADS-B
04:12PM 41.4215 -118.5733 204° Southwest 453 521 36,000  Level FlightAware ADS-B
04:13PM 41.3242 -118.6319 204° Southwest 451 519 36,000  Level Salt Lake Center
04:14PM 41.2203 -118.6939 204° Southwest 437 503 36,000  Level Salt Lake Center
04:15PM 41.1161 -118.7536 203° Southwest 432 497 36,000  Level Salt Lake Center
04:17PM 40.8903 -118.8861 204° Southwest 430 495 36,000  Level Salt Lake Center
04:18PM 40.7672 -118.9556 203° Southwest 429 494 36,000  Level Salt Lake Center
04:19PM 40.7943 -118.9307 204° Southwest  Level FlightAware Approximate
04:19PM 40.6622 -119.0158 204° Southwest 429 494 36,000  Level Salt Lake Center
04:20PM 40.5394 -119.0864 204° Southwest 430 495 36,000 -180 Level Salt Lake Center
04:26PM 39.9264 -119.4352 203° Southwest 425 489 35,000 -180 Descending FlightAware ADS-B
04:27PM 39.8524 -119.4769 203° Southwest 426 490 35,000  Level FlightAware ADS-B
04:28PM 39.7446 -119.5373 203° Southwest 428 493 35,000  Level FlightAware ADS-B
04:28PM 39.6743 -119.5766 203° Southwest 427 491 35,000  Level FlightAware ADS-B
04:29PM 39.5628 -119.6301 194° South 427 491 35,000  Level FlightAware ADS-B
04:31PM 39.4025 -119.6509 178° South 432 497 35,000  Level FlightAware ADS-B
04:31PM 39.3295 -119.6501 179° South 429 494 35,000  Level FlightAware ADS-B
04:32PM 39.2493 -119.6488 178° South 426 490 35,000  Level FlightAware ADS-B
04:33PM 39.1712 -119.6467 178° South 425 489 35,000  Level FlightAware ADS-B
04:34PM 39.0136 -119.6428 178° South 426 490 35,000  Level FlightAware ADS-B
04:35PM 38.8554 -119.6390 178° South 431 496 35,000  Level FlightAware ADS-B
04:36PM 38.7333 -119.6358 178° South 429 494 35,000  Level FlightAware ADS-B
04:37PM 38.6138 -119.6327 178° South 429 494 35,000  Level FlightAware ADS-B
04:38PM 38.5359 -119.6307 178° South 427 491 35,000  Level FlightAware ADS-B
04:39PM 38.4594 -119.6289 178° South 429 494 35,000  Level FlightAware ADS-B
04:39PM 38.3810 -119.6270 178° South 431 496 35,000  Level FlightAware ADS-B
04:40PM 38.2988 -119.6249 178° South 432 497 35,000  Level FlightAware ADS-B
04:41PM 38.2138 -119.6227 178° South 434 499 35,000  Level FlightAware ADS-B
04:41PM 38.1346 -119.6208 178° South 434 499 35,000  Level FlightAware ADS-B
04:42PM 38.0580 -119.6188 178° South 433 498 35,000  Level FlightAware ADS-B
04:43PM 37.9764 -119.6168 178° South 431 496 35,000  Level FlightAware ADS-B
04:44PM 37.8542 -119.6139 178° South 430 495 35,000  Level FlightAware ADS-B
04:44PM 37.7761 -119.6119 178° South 430 495 35,000  Level FlightAware ADS-B
04:45PM 37.7030 -119.6100 178° South 431 496 35,000  Level FlightAware ADS-B
04:46PM 37.6204 -119.6080 178° South 432 497 35,000  Level FlightAware ADS-B
04:46PM 37.5623 -119.6066 178° South 433 498 35,000  Level FlightAware ADS-B
04:47PM 37.4689 -119.6043 178° South 429 494 35,000  Level FlightAware ADS-B
04:48PM 37.3987 -119.6025 178° South 426 490 35,000  Level FlightAware ADS-B
04:48PM 37.2967 -119.6001 178° South 426 490 35,000  Level FlightAware ADS-B
04:49PM 37.2191 -119.5983 178° South 424 488 35,000  Level FlightAware ADS-B
04:50PM 37.1431 -119.5964 178° South 423 487 35,000  Level FlightAware ADS-B
04:50PM 37.0650 -119.5950 180° South 422 486 35,000  Level FlightAware ADS-B
04:51PM 36.9828 -119.5972 181° South 420 483 35,000  Level FlightAware ADS-B
04:52PM 36.9071 -119.5989 181° South 419 482 35,000  Level FlightAware ADS-B
04:52PM 36.8306 -119.6011 181° South 420 483 35,000  Level Oakland Center
04:55PM 36.5292 -119.6058 181° South 416 479 35,000  Level Los Angeles Center
04:55PM 36.4608 -119.6067 181° South 416 479 35,000 -540 Level Oakland Center
04:56PM 36.3450 -119.6086 181° South 416 479 34,200 -900 Descending Oakland Center
04:57PM 36.2275 -119.6111 181° South 417 480 33,200 -600 Descending Oakland Center
04:58PM 36.1108 -119.6125 181° South 418 481 33,000 -120 Descending Oakland Center
05:00PM 35.9281 -119.6167 181° South 414 476 33,000  Level Los Angeles Center
05:01PM 35.8586 -119.6189 181° South 415 478 33,000  Level Oakland Center
05:03PM 35.6325 -119.6283 182° South 407 468 33,000 -120 Level Oakland Center
05:03PM 35.5867 -119.6303 182° South 410 472 32,800 -1,260 Descending Los Angeles Center
05:09PM 34.9520 -119.3295 148° Southeast 449 517 25,500 -1,380 Descending FlightAware ADS-B
05:10PM 34.8543 -119.2553 148° Southeast 439 505 23,800 -1,740 Descending FlightAware ADS-B
05:10PM 34.7819 -119.2005 148° Southeast 429 494 22,600 -1,680 Descending FlightAware ADS-B
05:11PM 34.7246 -119.1574 148° Southeast 422 486 21,500 -1,740 Descending FlightAware ADS-B
05:12PM 34.6530 -119.1035 148° Southeast 407 468 20,400 -1,680 Descending FlightAware ADS-B
05:12PM 34.5849 -119.0522 148° Southeast 396 456 19,200 -1,680 Descending FlightAware ADS-B
05:13PM 34.5127 -118.9979 148° Southeast 387 445 18,000 -1,740 Descending FlightAware ADS-B
05:14PM 34.4568 -118.9560 148° Southeast 383 441 16,900 -1,800 Descending FlightAware ADS-B
05:15PM 34.3886 -118.9051 149° Southeast 376 433 15,600 -1,620 Descending FlightAware ADS-B
05:15PM 34.3333 -118.8723 164° South 363 418 14,600 -1,380 Descending FlightAware ADS-B
05:16PM 34.2676 -118.8486 163° South 348 400 13,800 -1,380 Descending FlightAware ADS-B
05:17PM 34.1716 -118.8132 163° South 339 390 12,300 -1,260 Descending FlightAware ADS-B
05:18PM 34.0869 -118.7821 162° South 316 364 11,400 -840 Descending FlightAware ADS-B
05:18PM 34.0611 -118.7635 151° Southeast 311 358 11,200 -900 Descending FlightAware ADS-B
05:19PM 34.0470 -118.7351 110° East 305 351 10,800 -1,200 Descending FlightAware ADS-B
05:19PM 34.0424 -118.7004 98° East 304 350 10,400 -1,080 Descending FlightAware ADS-B
05:20PM 34.0333 -118.6328 100° East 297 342 9,700 -1,200 Descending FlightAware ADS-B
05:20PM 34.0289 -118.6003 99° East 298 343 9,200 -1,140 Descending FlightAware ADS-B
05:20PM 34.0257 -118.5757 99° East 296 341 9,000 -960 Descending FlightAware ADS-B
05:20PM 34.0229 -118.5545 99° East 295 339 8,700 -1,320 Descending FlightAware ADS-B
05:21PM 34.0155 -118.4974 97° East 294 338 8,000 -1,560 Descending FlightAware ADS-B (OPMT / MUX)
05:21PM 34.0168 -118.4682 83° East 292 336 7,500 -1,920 Descending FlightAware ADS-B
05:22PM 34.0194 -118.4457 82° East 289 333 7,000 -2,100 Descending FlightAware ADS-B (OPMT / MUX)
05:22PM 34.0204 -118.4372 82° East 288 331 6,800 -2,400 Descending FlightAware ADS-B
05:22PM 34.0232 -118.4133 82° East 285 328 6,000 -2,580 Descending FlightAware ADS-B
05:22PM 34.0271 -118.3807 81° East 285 328 5,300 -2,880 Descending FlightAware ADS-B (OPMT / MUX)
05:22PM 34.0278 -118.3750 82° East 287 330 5,100 -2,460 Descending FlightAware ADS-B
05:23PM 34.0319 -118.3387 82° East 283 326 4,200 -2,160 Descending FlightAware ADS-B
05:23PM 34.0323 -118.3358 81° East 286 329 4,200 -900 Level FlightAware ADS-B (OPMT / MUX)
05:23PM 34.0352 -118.3089 83° East 262 302 3,900 -900 Descending FlightAware ADS-B
05:23PM 34.0375 -118.2870 83° East 243 280 3,700 -780 Descending FlightAware ADS-B
05:24PM 34.0331 -118.2561 123° Southeast 221 254 3,400 -720 Descending FlightAware ADS-B
05:24PM 34.0178 -118.2443 165° South 203 234 3,200 -780 Descending FlightAware ADS-B
05:24PM 33.9994 -118.2407 176° South 194 223 2,900 -900 Descending FlightAware ADS-B
05:25PM 33.9793 -118.2531 81° East 286 329 2,500 -780 Descending FlightAware ADS-B (OPMT / MUX)
05:25PM 33.9760 -118.2581 232° Southwest 192 221 2,500 -480 Level FlightAware ADS-B (OPMT / MUX)
05:25PM 33.9716 -118.2650 233° Southwest 191 220 2,400 -1,020 Descending FlightAware ADS-B
05:25PM 33.9645 -118.2794 253° West 194 223 2,100 -1,260 Descending FlightAware ADS-B (OPMT / MUX)
05:26PM 33.9628 -118.2990 265° West 186 214 1,700 -960 Descending FlightAware ADS-B
05:26PM 33.9601 -118.3227 264° West 166 191 1,400 -900 Descending FlightAware ADS-B
05:26PM 33.9590 -118.3353 263° West 157 181 1,100 -960 Descending FlightAware ADS-B
05:27PM 33.9568 -118.3562 263° West 157 181 800 -600 Descending FlightAware ADS-B
05:28PM 33.9525 -118.4139 263° West 148 170 100 -540 Descending Los Angeles Center
05:30PM 33.9425 -118.4081 228° Southwest  Level Estimated
05:37PM 33.9425 -118.4081 228° Southwest  Level Estimated
05:38PM 33.9425 -118.4081 239° Southwest  Level Estimated